Time;durP1;ratioP1;P1;durP2;ratioP2;P2;SDS_P1;SDS_P2;PMS_P1;PMS_P2;Temp;Humidity;BMP_temperature;BMP_pressure;BME280_temperature;BME280_humidity;BME280_pressure;Samples;Min_cycle;Max_cycle;Signal;HPM_P1;HPM_P2
2022/05/20 00:01:36;;;;;;;13.00;5.90;;;;;;;12.65;54.39;98883.20;106146;1281;24219;-72
2022/05/20 00:04:03;;;;;;;11.70;5.60;;;;;;;12.62;54.40;98881.81;106198;1280;137997;-72
2022/05/20 00:06:29;;;;;;;10.60;5.60;;;;;;;12.58;54.43;98874.93;106302;1280;22607;-71
2022/05/20 00:08:55;;;;;;;12.50;6.10;;;;;;;12.54;54.61;98869.94;106342;1280;22561;-70
2022/05/20 00:11:21;;;;;;;10.80;5.50;;;;;;;12.50;54.60;98872.50;105960;1280;137797;-72
2022/05/20 00:13:48;;;;;;;11.70;5.70;;;;;;;12.47;54.88;98872.55;106245;1280;22560;-71
2022/05/20 00:16:15;;;;;;;10.90;5.70;;;;;;;12.43;55.09;98876.42;105872;1280;138549;-71
2022/05/20 00:18:42;;;;;;;11.20;5.40;;;;;;;12.40;55.13;98884.19;106515;1281;22557;-71
2022/05/20 00:21:08;;;;;;;10.00;5.50;;;;;;;12.38;55.62;98883.05;106297;1280;24317;-72
2022/05/20 00:23:35;;;;;;;11.80;5.80;;;;;;;12.35;55.48;98872.90;106125;1283;137593;-72
2022/05/20 00:26:02;;;;;;;13.40;6.70;;;;;;;12.32;55.58;98870.83;106371;1282;24441;-72
2022/05/20 00:28:29;;;;;;;12.00;5.90;;;;;;;12.29;55.79;98872.96;106180;1280;138161;-72
2022/05/20 00:31:00;;;;;;;10.50;6.10;;;;;;;12.26;55.53;98869.45;105857;1283;22665;-71
2022/05/20 00:33:28;;;;;;;9.70;5.70;;;;;;;12.23;56.01;98866.40;106128;1281;22568;-71
2022/05/20 00:35:54;;;;;;;11.20;5.90;;;;;;;12.19;55.72;98866.05;105749;1283;137942;-71
2022/05/20 00:38:22;;;;;;;10.10;5.50;;;;;;;12.15;55.52;98869.42;105980;1281;24362;-71
2022/05/20 00:40:51;;;;;;;10.90;5.90;;;;;;;12.11;55.92;98871.58;105606;1283;137961;-71
2022/05/20 00:43:28;;;;;;;11.20;5.40;;;;;;;12.08;55.82;98870.77;105685;1283;22565;-71
2022/05/20 00:45:58;;;;;;;7.60;4.80;;;;;;;12.06;55.75;98870.30;105917;1280;138186;-71
2022/05/20 00:48:25;;;;;;;9.90;5.50;;;;;;;12.04;55.68;98871.73;106269;1281;22757;-71
2022/05/20 00:51:13;;;;;;;9.70;4.60;;;;;;;12.02;55.77;98872.73;106324;1280;22572;-71
2022/05/20 00:53:52;;;;;;;11.60;5.40;;;;;;;12.00;55.73;98871.27;105848;1280;137575;-71
2022/05/20 00:56:23;;;;;;;8.70;5.80;;;;;;;11.95;55.88;98863.39;106084;1283;24233;-71
2022/05/20 00:58:50;;;;;;;11.00;5.40;;;;;;;11.92;56.00;98856.70;105882;1280;137113;-71
2022/05/20 01:01:18;;;;;;;9.40;5.30;;;;;;;11.88;56.49;98849.80;106193;1280;22569;-71
2022/05/20 01:03:46;;;;;;;12.40;5.50;;;;;;;11.84;56.65;98841.03;105919;1281;22704;-71
2022/05/20 01:06:12;;;;;;;10.90;5.80;;;;;;;11.80;56.87;98844.34;106072;1281;137133;-73
2022/05/20 01:08:40;;;;;;;13.00;6.10;;;;;;;11.75;56.78;98848.45;105825;1280;25388;-71
2022/05/20 01:11:07;;;;;;;12.20;5.60;;;;;;;11.72;57.12;98854.39;105783;1280;137741;-73
2022/05/20 01:13:35;;;;;;;14.10;5.50;;;;;;;11.68;57.49;98852.99;105762;1280;22570;-72
2022/05/20 01:16:07;;;;;;;13.30;5.60;;;;;;;11.63;57.52;98854.16;105852;1279;138397;-71
2022/05/20 01:18:36;;;;;;;16.70;5.80;;;;;;;11.57;57.68;98847.43;105847;1280;25418;-71
2022/05/20 01:21:03;;;;;;;13.40;5.90;;;;;;;11.52;57.58;98843.67;105816;1280;24791;-71
2022/05/20 01:23:33;;;;;;;8.50;5.20;;;;;;;11.47;57.59;98840.75;105794;1280;137314;-71
2022/05/20 01:26:00;;;;;;;10.50;5.30;;;;;;;11.45;57.81;98847.89;106218;1280;22771;-71
2022/05/20 01:28:29;;;;;;;11.40;5.60;;;;;;;11.42;58.00;98848.71;105664;1280;138050;-71
2022/05/20 01:31:09;;;;;;;8.20;4.50;;;;;;;11.39;57.87;98842.93;106127;1281;25290;-71
2022/05/20 01:33:43;;;;;;;10.80;4.60;;;;;;;11.38;57.66;98844.02;105703;1281;25334;-71
2022/05/20 01:36:13;;;;;;;8.30;4.70;;;;;;;11.39;57.44;98840.25;106259;1280;137227;-71
2022/05/20 01:38:39;;;;;;;8.80;5.50;;;;;;;11.39;57.35;98838.67;105854;1280;22599;-72
2022/05/20 01:41:09;;;;;;;9.60;5.00;;;;;;;11.41;57.24;98837.18;106049;1280;137223;-73
2022/05/20 01:44:05;;;;;;;8.80;4.80;;;;;;;11.41;57.26;98827.75;105766;1280;25270;-71
2022/05/20 01:46:40;;;;;;;8.30;4.60;;;;;;;11.39;57.37;98830.60;105599;1280;137616;-72
2022/05/20 01:49:11;;;;;;;11.90;5.70;;;;;;;11.37;57.68;98840.09;105756;1280;22717;-71
2022/05/20 01:51:52;;;;;;;12.70;4.70;;;;;;;11.35;57.37;98842.02;105963;1281;22579;-72
2022/05/20 01:54:54;;;;;;;9.60;4.90;;;;;;;11.34;57.48;98840.59;106223;1277;137782;-72
2022/05/20 01:57:23;;;;;;;9.10;5.10;;;;;;;11.33;58.09;98837.02;106178;1277;23866;-72
2022/05/20 01:59:57;;;;;;;12.20;5.60;;;;;;;11.31;57.82;98836.86;106097;1277;137059;-71
2022/05/20 02:02:46;;;;;;;9.80;5.20;;;;;;;11.28;57.83;98839.59;105834;1278;24480;-71
2022/05/20 02:05:20;;;;;;;9.30;5.10;;;;;;;11.25;57.93;98834.78;105950;1280;137236;-72
2022/05/20 02:07:50;;;;;;;7.10;4.50;;;;;;;11.23;58.04;98835.23;106051;1277;22579;-72
2022/05/20 02:10:28;;;;;;;9.60;5.10;;;;;;;11.20;57.97;98838.06;105908;1277;137413;-71
2022/05/20 02:12:58;;;;;;;10.80;5.20;;;;;;;11.19;57.66;98836.66;105856;1277;22741;-72
2022/05/20 02:15:44;;;;;;;8.50;5.00;;;;;;;11.18;57.76;98832.66;106176;1277;24430;-72
2022/05/20 02:18:21;;;;;;;8.60;4.40;;;;;;;11.17;57.79;98835.66;106127;1277;137757;-72
2022/05/20 02:20:51;;;;;;;9.40;4.70;;;;;;;11.16;57.51;98832.56;106079;1278;23408;-72
2022/05/20 02:23:38;;;;;;;8.60;4.20;;;;;;;11.14;57.65;98831.55;105872;1278;137099;-71
2022/05/20 02:26:12;;;;;;;8.70;4.70;;;;;;;11.11;57.59;98831.81;106153;1278;23922;-71
2022/05/20 02:28:49;;;;;;;9.10;4.70;;;;;;;11.10;57.69;98837.30;106104;1277;137500;-71
2022/05/20 02:31:22;;;;;;;7.30;3.80;;;;;;;11.09;57.94;98838.96;106161;1278;22566;-71
2022/05/20 02:33:49;;;;;;;10.20;4.30;;;;;;;11.06;57.75;98833.39;106159;1277;24306;-71
2022/05/20 02:36:25;;;;;;;11.80;4.10;;;;;;;11.04;57.62;98826.31;105935;1277;138547;-71
2022/05/20 02:38:52;;;;;;;8.30;4.50;;;;;;;11.00;57.90;98823.69;106433;1276;24413;-71
2022/05/20 02:41:18;;;;;;;6.40;4.20;;;;;;;10.99;57.47;98819.94;106462;1277;137054;-71
2022/05/20 02:43:44;;;;;;;10.00;4.70;;;;;;;10.99;57.38;98817.38;105827;1280;23360;-71
2022/05/20 02:46:12;;;;;;;6.80;3.80;;;;;;;10.99;57.14;98818.63;105933;1277;138072;-71
2022/05/20 02:48:39;;;;;;;8.60;4.60;;;;;;;10.98;57.20;98818.61;106131;1277;22558;-71
2022/05/20 02:51:05;;;;;;;8.20;4.40;;;;;;;11.00;57.05;98827.47;106204;1277;22647;-71
2022/05/20 02:53:34;;;;;;;7.70;4.60;;;;;;;10.99;56.79;98823.04;105918;1277;138436;-71
2022/05/20 02:56:01;;;;;;;10.10;4.20;;;;;;;10.99;56.70;98821.52;105921;1277;24269;-71
2022/05/20 03:06:34;;;;;;;5.50;3.80;;;;;;;10.99;56.93;98816.45;106131;1280;137436;-73
2022/05/20 03:09:00;;;;;;;8.90;3.60;;;;;;;10.99;56.77;98814.65;106173;1277;23198;-73
2022/05/20 03:11:26;;;;;;;5.80;3.70;;;;;;;11.00;56.55;98821.16;106195;1277;137285;-73
2022/05/20 03:13:52;;;;;;;9.40;3.70;;;;;;;11.01;56.45;98817.86;105950;1278;22552;-73
2022/05/20 03:16:19;;;;;;;7.90;4.00;;;;;;;11.02;56.25;98813.63;106045;1278;137468;-73
2022/05/20 03:18:45;;;;;;;6.40;3.80;;;;;;;11.02;56.21;98807.42;106241;1278;25270;-72
2022/05/20 03:21:11;;;;;;;10.30;4.00;;;;;;;11.04;56.28;98810.34;106876;1277;22967;-73
2022/05/20 03:23:40;;;;;;;6.40;3.70;;;;;;;11.05;56.36;98811.90;106042;1277;137861;-72
2022/05/20 03:26:06;;;;;;;5.90;3.80;;;;;;;11.07;56.36;98808.44;106110;1277;24247;-72
2022/05/20 03:28:34;;;;;;;6.00;3.60;;;;;;;11.08;56.55;98810.64;106404;1277;137889;-72
2022/05/20 03:31:06;;;;;;;8.60;4.10;;;;;;;11.08;56.94;98812.00;106138;1278;24437;-72
2022/05/20 03:33:32;;;;;;;9.60;4.10;;;;;;;11.09;56.86;98810.11;106386;1277;22608;-72
2022/05/20 03:35:59;;;;;;;7.20;4.50;;;;;;;11.08;57.37;98804.48;106024;1278;137260;-72
2022/05/20 03:38:25;;;;;;;9.60;4.50;;;;;;;11.09;57.69;98810.33;106367;1278;22782;-72
2022/05/20 03:40:51;;;;;;;17.40;5.90;;;;;;;11.06;57.94;98810.99;106122;1276;138036;-72
2022/05/20 03:43:17;;;;;;;11.70;4.50;;;;;;;11.04;58.12;98807.23;106220;1280;22573;-72
2022/05/20 03:45:43;;;;;;;10.60;4.60;;;;;;;11.01;58.39;98805.27;106344;1277;24479;-72
2022/05/20 03:48:10;;;;;;;9.30;4.60;;;;;;;10.99;58.38;98804.08;106360;1277;137962;-72
2022/05/20 03:50:37;;;;;;;8.40;4.30;;;;;;;10.99;58.43;98804.67;106410;1277;22713;-72
2022/05/20 03:53:03;;;;;;;13.00;5.00;;;;;;;10.97;58.45;98814.55;106199;1278;137336;-73
2022/05/20 03:55:30;;;;;;;7.50;4.20;;;;;;;10.96;58.70;98813.75;106380;1277;24444;-73
2022/05/20 03:57:56;;;;;;;5.70;3.80;;;;;;;10.94;58.13;98814.88;106831;1278;25279;-71
2022/05/20 04:00:22;;;;;;;7.90;3.60;;;;;;;10.94;57.91;98812.03;106551;1277;137427;-71
2022/05/20 04:02:49;;;;;;;7.50;3.90;;;;;;;10.95;57.87;98815.60;106435;1277;23930;-72
2022/05/20 04:05:15;;;;;;;9.00;4.30;;;;;;;10.98;57.73;98818.16;105858;1281;137390;-73
2022/05/20 04:07:41;;;;;;;5.70;3.50;;;;;;;10.99;57.57;98816.72;106191;1278;22576;-72
2022/05/20 04:10:09;;;;;;;8.50;3.40;;;;;;;11.01;57.59;98809.63;106319;1278;22584;-72
2022/05/20 04:12:42;;;;;;;5.80;3.50;;;;;;;11.05;57.43;98811.20;105832;1277;137145;-73
2022/05/20 04:15:12;;;;;;;8.10;3.20;;;;;;;11.09;57.45;98810.08;106189;1281;23658;-71
2022/05/20 04:17:39;;;;;;;11.00;3.60;;;;;;;11.14;57.18;98816.50;105928;1277;137545;-72
2022/05/20 04:20:07;;;;;;;9.00;3.70;;;;;;;11.21;57.06;98815.27;106558;1277;22700;-72
2022/05/20 04:22:36;;;;;;;7.30;3.70;;;;;;;11.27;57.12;98808.53;106049;1278;137308;-72
2022/05/20 04:25:04;;;;;;;8.00;3.90;;;;;;;11.34;57.39;98811.08;106200;1278;22606;-72
2022/05/20 04:27:33;;;;;;;6.40;3.80;;;;;;;11.39;57.67;98810.75;106244;1277;22618;-71
2022/05/20 04:30:00;;;;;;;;;;;;;;;11.44;58.03;98809.31;106443;1278;138616;-72
2022/05/20 04:32:26;;;;;;;6.70;3.90;;;;;;;11.48;58.14;98810.54;106455;1277;22716;-72
2022/05/20 04:34:52;;;;;;;9.70;4.20;;;;;;;11.51;58.21;98808.38;106696;1277;137690;-71
2022/05/20 04:37:19;;;;;;;14.00;4.40;;;;;;;11.55;58.48;98805.73;106288;1277;22577;-73
2022/05/20 04:39:45;;;;;;;13.10;4.80;;;;;;;11.59;58.80;98808.15;105962;1278;25276;-73
2022/05/20 04:47:34;;;;;;;16.80;5.90;;;;;;;11.75;58.79;98804.96;106489;1277;137411;-72
2022/05/20 04:50:02;;;;;;;15.30;5.00;;;;;;;11.80;58.83;98809.47;106490;1277;22707;-72
2022/05/20 04:52:28;;;;;;;17.80;5.00;;;;;;;11.86;58.85;98806.67;106992;1277;140475;-72
2022/05/20 04:54:57;;;;;;;12.40;5.40;;;;;;;11.91;59.16;98809.86;106606;1277;23390;-72
2022/05/20 04:57:46;;;;;;;13.00;4.70;;;;;;;11.97;58.90;98806.64;106435;1277;22820;-72
2022/05/20 05:00:14;;;;;;;;;;;;;;;12.06;59.03;98806.59;105932;1277;137466;-72
2022/05/20 05:02:41;;;;;;;17.60;4.00;;;;;;;12.12;58.54;98806.15;106406;1277;22544;-72
2022/05/20 05:05:11;;;;;;;13.20;3.90;;;;;;;12.18;58.20;98804.11;106066;1277;137900;-72
2022/05/20 05:07:40;;;;;;;26.60;4.80;;;;;;;12.25;58.06;98798.55;106030;1277;23289;-72
2022/05/20 05:10:08;;;;;;;21.90;4.70;;;;;;;12.30;58.07;98800.89;106097;1278;25239;-72
2022/05/20 05:12:34;;;;;;;21.90;4.90;;;;;;;12.37;57.65;98799.79;105740;1278;137506;-72
2022/05/20 05:15:05;;;;;;;20.60;4.20;;;;;;;12.45;57.53;98800.30;106447;1277;23734;-72
2022/05/20 05:20:16;;;;;;;18.60;4.00;;;;;;;12.65;57.25;98803.27;106005;1277;24441;-71
2022/05/20 05:22:43;;;;;;;26.30;4.80;;;;;;;12.76;56.94;98802.79;106107;1276;138025;-72
2022/05/20 05:25:11;;;;;;;20.90;3.80;;;;;;;12.86;56.67;98798.52;106479;1277;22547;-71
2022/05/20 05:27:38;;;;;;;26.50;5.70;;;;;;;12.98;56.70;98796.94;106266;1277;24262;-71
2022/05/20 05:30:05;;;;;;;19.10;3.60;;;;;;;13.11;56.52;98796.35;105829;1278;138585;-71
2022/05/20 05:32:31;;;;;;;15.50;3.60;;;;;;;13.24;56.65;98793.56;105865;1278;23243;-71
2022/05/20 05:34:57;;;;;;;14.20;3.30;;;;;;;13.40;56.05;98793.13;105453;1277;949727;-72
2022/05/20 05:37:24;;;;;;;12.60;3.40;;;;;;;13.56;55.39;98800.63;106236;1277;24230;-72
2022/05/20 05:39:50;;;;;;;15.80;3.80;;;;;;;13.71;54.85;98801.08;106577;1277;22580;-72
2022/05/20 05:42:16;;;;;;;17.40;3.90;;;;;;;13.86;54.69;98806.12;105926;1277;137440;-73
2022/05/20 05:44:43;;;;;;;15.10;3.70;;;;;;;14.02;54.50;98803.27;105908;1278;23486;-72
2022/05/20 05:47:09;;;;;;;17.10;3.40;;;;;;;14.17;54.52;98801.09;105985;1278;139636;-72
2022/05/20 05:49:36;;;;;;;12.70;2.90;;;;;;;14.33;54.32;98801.78;105826;1278;25278;-72
2022/05/20 05:52:02;;;;;;;13.90;3.00;;;;;;;14.49;52.75;98798.25;106283;1277;22800;-72
2022/05/20 05:54:29;;;;;;;16.50;3.00;;;;;;;14.67;53.08;98796.21;106248;1277;137422;-72
2022/05/20 05:56:56;;;;;;;10.90;3.10;;;;;;;14.83;52.95;98800.05;106182;1277;22570;-72
2022/05/20 05:59:22;;;;;;;20.60;4.30;;;;;;;14.99;52.34;98795.54;106054;1277;137369;-72
2022/05/20 06:01:48;;;;;;;9.40;3.00;;;;;;;15.14;51.37;98792.77;106222;1276;23922;-72
2022/05/20 06:04:14;;;;;;;10.00;2.60;;;;;;;15.29;51.18;98795.80;106512;1277;25234;-71
2022/05/20 06:06:41;;;;;;;13.00;3.00;;;;;;;15.45;50.77;98793.13;106735;1277;137386;-71
2022/05/20 06:09:07;;;;;;;11.80;3.90;;;;;;;15.61;50.40;98793.05;106630;1277;23343;-71
2022/05/20 06:11:33;;;;;;;13.70;3.10;;;;;;;15.77;50.56;98799.48;106557;1277;138446;-72
2022/05/20 06:14:00;;;;;;;16.30;2.90;;;;;;;15.94;49.63;98798.73;106158;1277;23340;-72
2022/05/20 06:16:26;;;;;;;15.10;2.80;;;;;;;16.11;48.77;98799.02;105956;1277;137868;-72
2022/05/20 06:18:52;;;;;;;19.90;3.70;;;;;;;16.29;48.56;98800.84;106213;1277;25365;-71
2022/05/20 06:21:19;;;;;;;20.30;3.40;;;;;;;16.46;47.72;98797.77;106354;1277;23956;-72
2022/05/20 06:23:45;;;;;;;21.80;3.10;;;;;;;16.65;47.30;98796.77;106177;1277;137498;-72
2022/05/20 06:26:11;;;;;;;20.50;3.10;;;;;;;16.84;46.87;98796.89;106072;1280;23358;-72
2022/05/20 06:28:38;;;;;;;15.00;2.60;;;;;;;17.03;46.48;98792.72;106381;1277;137890;-72
2022/05/20 06:31:05;;;;;;;10.70;3.10;;;;;;;17.22;46.60;98788.04;106545;1277;23930;-72
2022/05/20 06:33:31;;;;;;;10.70;2.70;;;;;;;17.40;46.30;98788.02;106089;1278;22589;-72
2022/05/20 06:41:18;;;;;;;18.40;2.80;;;;;;;18.01;45.02;98786.13;106148;1277;137807;-72
2022/05/20 06:43:44;;;;;;;19.40;4.60;;;;;;;18.21;44.81;98786.82;106408;1277;23363;-72
2022/05/20 06:46:10;;;;;;;7.90;2.30;;;;;;;18.42;44.69;98782.34;106396;1277;25455;-72
2022/05/20 06:48:50;;;;;;;7.90;2.50;;;;;;;18.65;44.27;98782.97;106184;1277;136993;-71
2022/05/20 06:51:20;;;;;;;8.70;2.50;;;;;;;18.94;44.40;98782.39;106065;1277;23363;-72
2022/05/20 06:53:47;;;;;;;11.40;2.50;;;;;;;19.19;43.44;98777.69;106660;1277;137771;-72
2022/05/20 06:56:15;;;;;;;10.60;2.40;;;;;;;19.45;43.35;98776.39;106210;1277;26615;-72
2022/05/20 06:58:42;;;;;;;9.20;2.60;;;;;;;19.73;43.09;98770.00;106153;1278;138043;-71
2022/05/20 07:01:08;;;;;;;6.10;2.40;;;;;;;20.04;42.89;98772.89;106120;1277;23090;-72
2022/05/20 07:03:34;;;;;;;14.20;2.50;;;;;;;20.30;42.12;98774.32;106223;1277;23068;-71
2022/05/20 07:06:03;;;;;;;10.30;2.40;;;;;;;20.53;41.97;98773.27;106835;1277;137917;-71
2022/05/20 07:08:30;;;;;;;3.90;2.10;;;;;;;20.80;41.65;98771.77;106234;1277;22567;-72
2022/05/20 07:10:56;;;;;;;8.90;2.10;;;;;;;20.99;40.82;98770.14;106020;1277;138203;-72
2022/05/20 07:13:23;;;;;;;11.50;2.10;;;;;;;21.13;40.30;98765.66;106088;1277;22557;-72
2022/05/20 07:15:49;;;;;;;11.90;2.80;;;;;;;21.28;40.28;98769.96;106167;1280;22571;-71
2022/05/20 07:18:15;;;;;;;9.90;2.20;;;;;;;21.43;40.38;98773.23;106062;1277;137481;-72
2022/05/20 07:20:42;;;;;;;8.30;1.90;;;;;;;21.57;39.81;98780.14;106700;1277;22593;-72
2022/05/20 07:23:09;;;;;;;4.80;2.50;;;;;;;21.68;39.41;98782.69;106267;1277;137108;-72
2022/05/20 07:25:37;;;;;;;7.60;2.30;;;;;;;21.76;39.70;98781.77;106198;1277;22558;-72
2022/05/20 07:28:05;;;;;;;4.70;1.80;;;;;;;21.86;39.23;98782.38;106271;1277;23395;-72
2022/05/20 07:30:32;;;;;;;5.80;1.90;;;;;;;21.95;38.39;98783.48;106196;1277;137093;-72
2022/05/20 07:32:58;;;;;;;9.10;2.60;;;;;;;22.01;38.27;98786.92;106313;1277;24530;-72
2022/05/20 07:35:25;;;;;;;7.60;2.00;;;;;;;22.10;38.84;98782.34;106029;1277;137246;-71
2022/05/20 07:37:51;;;;;;;8.60;2.10;;;;;;;22.18;38.37;98782.66;105980;1277;25359;-72
2022/05/20 07:40:19;;;;;;;5.70;2.20;;;;;;;22.24;37.92;98785.38;106402;1277;24272;-74
2022/05/20 07:42:46;;;;;;;8.70;2.90;;;;;;;22.28;37.49;98791.31;106557;1277;137203;-73
2022/05/20 07:45:15;;;;;;;8.20;2.30;;;;;;;22.34;37.48;98793.67;106718;1276;23953;-73
2022/05/20 07:47:43;;;;;;;16.00;2.80;;;;;;;22.41;37.58;98792.40;105987;1280;137995;-71
2022/05/20 07:50:10;;;;;;;12.40;1.90;;;;;;;22.51;37.65;98792.15;106183;1277;22637;-77
2022/05/20 07:55:21;;;;;;;8.30;2.00;;;;;;;22.73;37.03;98789.82;106085;1278;22590;-75
2022/05/20 07:57:47;;;;;;;10.50;3.20;;;;;;;22.75;37.30;98791.98;106934;1277;22593;-77
2022/05/20 08:00:15;;;;;;;6.80;1.90;;;;;;;22.71;37.39;98801.20;106325;1277;137472;-75
2022/05/20 08:02:43;;;;;;;11.40;2.00;;;;;;;22.61;37.53;98801.34;106700;1277;22564;-74
2022/05/20 08:05:10;;;;;;;10.10;2.50;;;;;;;22.51;37.76;98798.59;106520;1277;138235;-75
2022/05/20 08:07:41;;;;;;;14.80;2.70;;;;;;;22.35;37.85;98805.02;106303;1277;23468;-74
2022/05/20 08:10:13;;;;;;;10.70;3.20;;;;;;;22.16;38.32;98804.06;106449;1277;22602;-74
2022/05/20 08:12:41;;;;;;;10.20;2.30;;;;;;;22.03;38.97;98801.37;106270;1277;137269;-74
2022/05/20 08:15:08;;;;;;;10.60;2.30;;;;;;;21.94;39.33;98800.08;106383;1277;25371;-74
2022/05/20 08:17:36;;;;;;;20.20;3.20;;;;;;;21.88;40.05;98803.92;106267;1277;137360;-74
2022/05/20 08:20:07;;;;;;;6.40;2.50;;;;;;;21.82;40.08;98805.77;106096;1277;22578;-73
2022/05/20 08:22:37;;;;;;;7.10;2.40;;;;;;;21.73;40.15;98803.47;105856;1278;137270;-73
2022/05/20 08:25:16;;;;;;;7.80;2.30;;;;;;;21.69;40.67;98803.94;106312;1277;24687;-73
2022/05/20 08:27:43;;;;;;;11.50;3.00;;;;;;;21.69;40.95;98805.93;106252;1277;25344;-74
2022/05/20 08:30:22;;;;;;;9.20;2.30;;;;;;;21.70;40.98;98803.81;106372;1277;137385;-75
2022/05/20 08:32:49;;;;;;;16.30;2.90;;;;;;;21.73;41.28;98804.97;106417;1277;23312;-73
2022/05/20 08:35:16;;;;;;;14.80;3.20;;;;;;;21.80;41.49;98804.54;106044;1277;137407;-74
2022/05/20 08:37:45;;;;;;;10.90;3.80;;;;;;;21.87;41.49;98801.11;106340;1277;23353;-74
2022/05/20 08:40:29;;;;;;;7.80;2.70;;;;;;;21.94;41.69;98801.12;106761;1277;22599;-73
2022/05/20 08:42:58;;;;;;;9.40;2.90;;;;;;;22.02;41.95;98801.84;106168;1278;137151;-73
2022/05/20 08:45:28;;;;;;;9.10;2.60;;;;;;;22.11;42.41;98801.27;106467;1276;24289;-73
2022/05/20 08:47:55;;;;;;;12.20;2.30;;;;;;;22.21;42.31;98806.12;105934;1277;137389;-74
2022/05/20 08:50:30;;;;;;;7.80;2.60;;;;;;;22.29;42.18;98801.79;106024;1277;22735;-75
2022/05/20 08:52:57;;;;;;;4.20;2.20;;;;;;;22.37;42.36;98798.54;106409;1277;137629;-76
2022/05/20 08:55:24;;;;;;;6.10;2.80;;;;;;;22.42;42.01;98795.55;106342;1277;25482;-75
2022/05/20 08:57:56;;;;;;;2.90;1.80;;;;;;;22.42;42.28;98797.38;106350;1276;22562;-75
2022/05/20 09:00:23;;;;;;;9.20;2.10;;;;;;;22.39;42.79;98801.00;106595;1276;137172;-73
2022/05/20 09:02:50;;;;;;;4.90;1.60;;;;;;;22.38;42.69;98798.13;106834;1277;22553;-75
2022/05/20 09:05:19;;;;;;;9.10;2.10;;;;;;;22.39;42.68;98796.77;106035;1277;137854;-74
2022/05/20 09:08:20;;;;;;;14.90;2.20;;;;;;;22.48;42.99;98800.05;106752;1276;24182;-75
2022/05/20 09:10:50;;;;;;;10.50;2.10;;;;;;;22.60;42.73;98804.20;105951;1277;138476;-75
2022/05/20 09:16:13;;;;;;;7.20;1.80;;;;;;;22.76;42.05;98804.56;105760;1277;22625;-75
2022/05/20 09:18:46;;;;;;;7.60;1.70;;;;;;;22.83;41.73;98800.11;106360;1277;137391;-75
2022/05/20 09:21:29;;;;;;;5.30;1.80;;;;;;;22.85;41.81;98793.90;106657;1277;22571;-73
2022/05/20 09:24:00;;;;;;;9.80;2.00;;;;;;;22.91;42.71;98794.91;106991;1277;137070;-75
2022/05/20 09:26:35;;;;;;;9.90;2.00;;;;;;;22.98;42.44;98791.60;106273;1276;24431;-75
2022/05/20 09:29:07;;;;;;;6.30;1.70;;;;;;;23.02;42.32;98786.00;106350;1277;138210;-72
2022/05/20 09:31:53;;;;;;;7.90;1.70;;;;;;;23.10;41.80;98781.31;106518;1277;22581;-75
2022/05/20 09:34:39;;;;;;;5.60;1.90;;;;;;;23.25;41.81;98778.79;106096;1277;137787;-74
2022/05/20 09:37:16;;;;;;;4.90;2.10;;;;;;;23.47;41.39;98765.59;106441;1277;22546;-73
2022/05/20 09:39:45;;;;;;;5.20;1.70;;;;;;;23.75;41.22;98758.09;106210;1277;22708;-74
2022/05/20 09:42:21;;;;;;;8.10;2.00;;;;;;;24.02;40.77;98751.25;106334;1276;137213;-75
2022/05/20 09:44:54;;;;;;;8.00;1.90;;;;;;;24.30;40.39;98747.45;106856;1277;22544;-77
2022/05/20 09:47:24;;;;;;;2.70;2.00;;;;;;;24.57;40.24;98742.64;106517;1277;137547;-79
2022/05/20 09:50:19;;;;;;;5.90;1.70;;;;;;;24.82;39.69;98739.44;106219;1277;22667;-77
2022/05/20 09:52:53;;;;;;;5.00;1.80;;;;;;;25.04;38.96;98730.98;106167;1277;137454;-78
2022/05/20 09:55:22;;;;;;;10.30;1.90;;;;;;;25.24;38.36;98733.54;106639;1277;22584;-78
2022/05/20 09:57:49;;;;;;;5.00;1.80;;;;;;;25.42;38.37;98731.82;106601;1277;23058;-78
2022/05/20 10:00:32;;;;;;;4.10;1.80;;;;;;;25.64;38.09;98731.48;106356;1277;137135;-78
2022/05/20 10:03:14;;;;;;;2.70;1.40;;;;;;;25.79;37.12;98727.53;106934;1276;22661;-78
2022/05/20 10:06:21;;;;;;;4.70;1.90;;;;;;;25.92;36.90;98720.55;106182;1276;138158;-77
2022/05/20 10:09:08;;;;;;;6.70;1.90;;;;;;;26.06;36.86;98722.29;106464;1275;25443;-77
2022/05/20 10:12:11;;;;;;;3.60;1.70;;;;;;;26.23;36.73;98720.36;106715;1274;137621;-78
2022/05/20 10:14:56;;;;;;;4.60;1.90;;;;;;;26.40;36.40;98715.14;106313;1277;23379;-76
2022/05/20 10:17:51;;;;;;;4.80;2.10;;;;;;;26.46;35.97;98717.84;106245;1277;137993;-77
2022/05/20 10:20:36;;;;;;;8.10;2.20;;;;;;;26.54;35.75;98713.57;107050;1277;22561;-81
2022/05/20 10:23:23;;;;;;;4.50;2.50;;;;;;;26.65;35.85;98705.19;107080;1277;138003;-78
2022/05/20 10:26:17;;;;;;;6.10;2.10;;;;;;;26.81;35.83;98700.23;106731;1277;22544;-75
2022/05/20 10:34:38;;;;;;;2.50;1.90;;;;;;;27.40;35.03;98696.52;106504;1276;137339;-76
2022/05/20 10:37:26;;;;;;;6.90;1.70;;;;;;;27.54;34.69;98693.27;106867;1276;25264;-75
2022/05/20 10:39:53;;;;;;;9.70;1.90;;;;;;;27.70;34.84;98688.63;106242;1277;23348;-74
2022/05/20 10:42:33;;;;;;;6.60;1.60;;;;;;;27.81;34.75;98689.83;106670;1277;138063;-75
2022/05/20 10:50:54;;;;;;;4.50;1.70;;;;;;;28.34;33.77;98698.48;106256;1277;22627;-75
2022/05/20 10:53:37;;;;;;;5.70;1.60;;;;;;;28.46;33.45;98695.20;106675;1277;137478;-76
2022/05/20 10:56:40;;;;;;;5.40;1.80;;;;;;;28.55;33.03;98694.85;106626;1277;24227;-76
2022/05/20 10:59:27;;;;;;;8.10;1.90;;;;;;;28.61;33.23;98695.80;106000;1277;137638;-75
2022/05/20 11:02:06;;;;;;;4.80;1.70;;;;;;;28.70;32.96;98694.84;106028;1277;25332;-75
2022/05/20 11:05:01;;;;;;;15.30;2.00;;;;;;;28.75;33.03;98696.83;106289;1275;137559;-75
2022/05/20 11:07:40;;;;;;;3.40;2.00;;;;;;;28.88;32.79;98694.16;106600;1277;22996;-75
2022/05/20 11:10:09;;;;;;;;;;;;;;;28.95;32.78;98696.94;106103;1277;23360;-76
2022/05/20 11:13:04;;;;;;;3.60;2.10;;;;;;;28.96;32.48;98691.35;106144;1275;124786;-75
2022/05/20 11:15:56;;;;;;;7.20;2.20;;;;;;;29.13;32.42;98692.23;106447;1277;23404;-75
2022/05/20 11:18:46;;;;;;;5.30;1.80;;;;;;;29.28;32.06;98687.25;106742;1277;137388;-76
2022/05/20 11:21:35;;;;;;;5.80;1.70;;;;;;;29.39;31.88;98687.59;106592;1276;25270;-76
2022/05/20 11:24:08;;;;;;;5.10;1.60;;;;;;;29.43;31.91;98686.48;106675;1277;137692;-75
2022/05/20 11:27:01;;;;;;;4.30;1.70;;;;;;;29.48;31.52;98686.20;106797;1276;25261;-74
2022/05/20 11:29:47;;;;;;;4.20;2.20;;;;;;;29.43;31.26;98679.73;106148;1277;137743;-74
2022/05/20 11:32:46;;;;;;;3.70;1.90;;;;;;;29.46;31.57;98672.67;106428;1276;22785;-75
2022/05/20 11:35:50;;;;;;;3.20;2.20;;;;;;;29.58;31.91;98666.84;106311;1277;137414;-75
2022/05/20 11:38:40;;;;;;;3.10;1.40;;;;;;;29.74;31.35;98662.93;106365;1276;24063;-76
2022/05/20 11:41:26;;;;;;;6.30;1.70;;;;;;;29.80;30.69;98655.78;106595;1276;137501;-75
2022/05/20 11:44:18;;;;;;;5.40;1.80;;;;;;;29.70;30.71;98653.24;106550;1276;22689;-75
2022/05/20 11:47:08;;;;;;;6.90;1.50;;;;;;;29.69;30.98;98641.91;106242;1277;137797;-75
2022/05/20 11:50:01;;;;;;;6.40;2.00;;;;;;;29.84;31.32;98636.94;106610;1276;24212;-75
2022/05/20 11:52:42;;;;;;;3.40;1.30;;;;;;;29.94;31.05;98633.16;106434;1277;22640;-76
2022/05/20 11:55:36;;;;;;;5.50;1.70;;;;;;;29.90;30.51;98624.32;106584;1276;137878;-75
2022/05/20 11:58:06;;;;;;;6.10;2.30;;;;;;;29.95;31.11;98622.96;106514;1277;22704;-75
2022/05/20 12:00:39;;;;;;;3.50;1.50;;;;;;;30.13;31.35;98621.48;106454;1277;137215;-74
2022/05/20 12:03:14;;;;;;;3.00;1.50;;;;;;;30.38;31.20;98624.20;106807;1277;22577;-75
2022/05/20 12:05:58;;;;;;;6.00;1.70;;;;;;;30.52;30.58;98628.31;106019;1280;137287;-76
2022/05/20 12:08:46;;;;;;;4.70;1.60;;;;;;;30.55;30.14;98630.45;106767;1277;22544;-76
2022/05/20 12:11:20;;;;;;;3.70;1.70;;;;;;;30.52;30.21;98626.95;106547;1277;137324;-75
2022/05/20 12:14:13;;;;;;;5.20;1.50;;;;;;;30.53;30.02;98631.46;106283;1277;22579;-75
2022/05/20 12:17:02;;;;;;;5.70;1.50;;;;;;;30.50;30.12;98626.91;106374;1276;24627;-75
2022/05/20 12:25:36;;;;;;;4.50;1.70;;;;;;;30.53;30.43;98623.77;108092;1276;137239;-75
2022/05/20 12:28:05;;;;;;;4.10;1.80;;;;;;;30.57;30.53;98630.34;106644;1277;22554;-75